TimeCET,TemperatureF,Dew PointF,Humidity,Sea Level PressureIn,VisibilityMPH,Wind Direction,Wind SpeedMPH,Gust SpeedMPH,PrecipitationIn,Events,Conditions,WindDirDegrees,DateUTC
12:15 AM,62.6,57.2,82,29.86,-9999.0,West,5.8,-,N/A,,Clear,280,2012-11-01 23:15:00
12:45 AM,62.6,57.2,82,29.86,-9999.0,WNW,4.6,-,N/A,,Clear,290,2012-11-01 23:45:00
1:00 AM,63,57,74,29.87,7,WNW,5.8,,,,,290,2012-11-02 00:00:00
1:15 AM,62.6,57.2,82,29.86,-9999.0,WNW,5.8,-,N/A,,Clear,290,2012-11-02 00:15:00
1:45 AM,62.6,57.2,82,29.86,-9999.0,West,4.6,-,N/A,,Clear,280,2012-11-02 00:45:00
2:15 AM,62.6,57.2,82,29.86,-9999.0,West,4.6,-,N/A,,Clear,280,2012-11-02 01:15:00
2:45 AM,62.6,57.2,82,29.86,-9999.0,WNW,5.8,-,N/A,,Clear,290,2012-11-02 01:45:00
3:15 AM,64.4,57.2,77,29.86,-9999.0,WNW,4.6,-,N/A,,Clear,290,2012-11-02 02:15:00
3:45 AM,62.6,57.2,82,29.89,-9999.0,West,4.6,-,N/A,,Clear,260,2012-11-02 02:45:00
4:00 AM,62,58,81,29.89,7,West,4.6,,,,,270,2012-11-02 03:00:00
4:15 AM,62.6,57.2,82,29.89,-9999.0,WNW,3.5,-,N/A,,Clear,300,2012-11-02 03:15:00
4:45 AM,62.6,57.2,82,29.89,-9999.0,WNW,4.6,-,N/A,,Clear,290,2012-11-02 03:45:00
5:15 AM,60.8,57.2,88,29.89,-9999.0,West,3.5,-,N/A,,Clear,280,2012-11-02 04:15:00
5:45 AM,60.8,57.2,88,29.89,-9999.0,West,4.6,-,N/A,,Clear,280,2012-11-02 04:45:00
6:15 AM,62.6,59.0,88,29.89,-9999.0,West,4.6,-,N/A,,Clear,270,2012-11-02 05:15:00
6:45 AM,62.6,59.0,88,29.89,6.2,West,5.8,-,N/A,,Partly Cloudy,270,2012-11-02 05:45:00
7:00 AM,64,59,80,29.91,7,West,5.8,,,,,280,2012-11-02 06:00:00
7:15 AM,64.4,59.0,83,29.92,6.2,West,4.6,-,N/A,,Partly Cloudy,280,2012-11-02 06:15:00
7:45 AM,68.0,60.8,78,29.92,6.2,West,4.6,-,N/A,,Partly Cloudy,270,2012-11-02 06:45:00
8:15 AM,69.8,62.6,78,29.92,6.2,West,3.5,-,N/A,,Partly Cloudy,260,2012-11-02 07:15:00
8:45 AM,71.6,60.8,69,29.95,6.2,West,5.8,-,N/A,,Partly Cloudy,280,2012-11-02 07:45:00
9:15 AM,71.6,60.8,69,29.95,6.2,WNW,5.8,-,N/A,,Partly Cloudy,290,2012-11-02 08:15:00
9:45 AM,71.6,60.8,69,29.95,6.2,WNW,9.2,-,N/A,,Partly Cloudy,290,2012-11-02 08:45:00
10:00 AM,73,62,59,29.97,12,WNW,13.8,,,,Scattered Clouds,300,2012-11-02 09:00:00
10:15 AM,73.4,62.6,69,29.98,6.2,NW,16.1,-,N/A,,Scattered Clouds,320,2012-11-02 09:15:00
10:45 AM,71.6,60.8,69,29.98,6.2,NNW,12.7,-,N/A,,Scattered Clouds,330,2012-11-02 09:45:00
11:15 AM,73.4,60.8,65,29.98,6.2,NNW,10.4,-,N/A,,Scattered Clouds,330,2012-11-02 10:15:00
11:45 AM,71.6,60.8,69,29.98,6.2,NW,12.7,-,N/A,,Scattered Clouds,320,2012-11-02 10:45:00
12:15 PM,73.4,60.8,65,29.98,6.2,NW,10.4,-,N/A,,Partly Cloudy,310,2012-11-02 11:15:00
12:45 PM,73.4,60.8,65,29.98,6.2,NW,12.7,-,N/A,,Mostly Cloudy,310,2012-11-02 11:45:00
1:00 PM,73,62,61,29.96,16,NW,11.5,,,,,310,2012-11-02 12:00:00
1:15 PM,73.4,60.8,65,29.95,6.2,NNW,13.8,-,N/A,,Scattered Clouds,330,2012-11-02 12:15:00
1:45 PM,75.2,60.8,61,29.95,6.2,NW,12.7,-,N/A,,Partly Cloudy,320,2012-11-02 12:45:00
2:15 PM,73.4,60.8,65,29.98,6.2,NW,13.8,-,N/A,,Partly Cloudy,320,2012-11-02 13:15:00
2:45 PM,73.4,60.8,65,29.98,6.2,NW,13.8,-,N/A,,Partly Cloudy,310,2012-11-02 13:45:00
3:15 PM,71.6,59.0,64,29.98,6.2,NW,15.0,-,N/A,,Partly Cloudy,320,2012-11-02 14:15:00
3:45 PM,71.6,59.0,64,29.98,6.2,NW,10.4,-,N/A,,Scattered Clouds,320,2012-11-02 14:45:00
4:00 PM,71,59,58,29.99,12,NW,12.7,,,,Partly Cloudy,320,2012-11-02 15:00:00
4:15 PM,71.6,59.0,64,30.01,6.2,NW,12.7,-,N/A,,Partly Cloudy,320,2012-11-02 15:15:00
4:45 PM,69.8,59.0,68,30.01,6.2,NW,12.7,-,N/A,,Partly Cloudy,310,2012-11-02 15:45:00
5:15 PM,68.0,59.0,73,30.01,6.2,NW,11.5,-,N/A,,Partly Cloudy,320,2012-11-02 16:15:00
5:45 PM,68.0,59.0,73,30.01,6.2,NNW,10.4,-,N/A,,Scattered Clouds,330,2012-11-02 16:45:00
6:15 PM,68.0,59.0,73,30.04,6.2,NNW,9.2,-,N/A,,Partly Cloudy,340,2012-11-02 17:15:00
6:45 PM,66.2,59.0,78,30.04,6.2,NNW,9.2,-,N/A,,Partly Cloudy,340,2012-11-02 17:45:00
7:00 PM,66,59,72,30.04,12,NNW,9.2,,,,,330,2012-11-02 18:00:00
7:15 PM,66.2,59.0,78,30.04,6.2,NNW,8.1,-,N/A,,Partly Cloudy,330,2012-11-02 18:15:00
7:45 PM,64.4,59.0,83,30.04,-9999.0,NW,6.9,-,N/A,,Clear,320,2012-11-02 18:45:00
8:15 PM,64.4,57.2,77,30.04,6.2,NW,8.1,-,N/A,,Partly Cloudy,320,2012-11-02 19:15:00
8:45 PM,66.2,57.2,73,30.04,6.2,NW,8.1,-,N/A,,Partly Cloudy,320,2012-11-02 19:45:00
9:15 PM,64.4,57.2,77,30.04,6.2,NW,8.1,-,N/A,,Partly Cloudy,310,2012-11-02 20:15:00
9:45 PM,64.4,57.2,77,30.06,6.2,NW,8.1,-,N/A,,Partly Cloudy,310,2012-11-02 20:45:00
10:00 PM,65,58,70,30.06,12,NW,6.9,,,,Scattered Clouds,320,2012-11-02 21:00:00
10:15 PM,64.4,57.2,77,30.06,-9999.0,NW,8.1,-,N/A,,Clear,320,2012-11-02 21:15:00
10:45 PM,64.4,57.2,77,30.06,-9999.0,NW,9.2,-,N/A,,Clear,320,2012-11-02 21:45:00
11:15 PM,62.6,55.4,77,30.06,-9999.0,NW,8.1,-,N/A,,Clear,320,2012-11-02 22:15:00
11:45 PM,62.6,55.4,77,30.06,-9999.0,NW,6.9,-,N/A,,Clear,320,2012-11-02 22:45:00